createdAt,value
2018-09-08T00:03:18.884Z,9.13
2018-09-08T00:08:23.731Z,15.40
2018-09-08T00:13:28.601Z,14.60
2018-09-08T00:18:38.609Z,12.23
2018-09-08T00:23:48.523Z,10.07
2018-09-08T00:29:03.377Z,12.60
2018-09-08T00:34:08.461Z,16.77
2018-09-08T00:39:13.345Z,14.53
2018-09-08T00:44:18.568Z,14.60
2018-09-08T00:49:23.558Z,18.93
2018-09-08T00:54:28.411Z,18.03
2018-09-08T00:59:33.267Z,17.13
2018-09-08T01:04:38.996Z,13.57
2018-09-08T01:09:43.973Z,19.43
2018-09-08T01:14:48.846Z,15.63
2018-09-08T01:19:53.827Z,15.57
2018-09-08T01:24:59.123Z,13.37
2018-09-08T01:30:04.196Z,16.83
2018-09-08T01:35:09.107Z,15.53
2018-09-08T01:40:13.946Z,13.53
2018-09-08T01:45:18.991Z,16.13
2018-09-08T01:50:23.827Z,12.10
2018-09-08T01:55:28.843Z,12.60
2018-09-08T02:00:34.779Z,13.40
2018-09-08T02:05:39.742Z,14.80
2018-09-08T02:10:44.774Z,17.40
2018-09-08T02:15:49.692Z,15.50
2018-09-08T02:20:54.574Z,10.10
2018-09-08T02:26:01.806Z,12.63
2018-09-08T02:31:06.848Z,14.00
2018-09-08T02:36:11.803Z,21.00
2018-09-08T02:41:16.728Z,16.80
2018-09-08T02:46:21.785Z,14.00
2018-09-08T02:51:25.154Z,18.47
2018-09-08T02:56:28.642Z,18.77
2018-09-08T03:01:32.019Z,19.00
2018-09-08T03:06:35.393Z,22.30
2018-09-08T03:11:39.681Z,21.63
2018-09-08T03:16:43.147Z,23.20
2018-09-08T03:21:46.615Z,22.03
2018-09-08T03:26:49.983Z,23.13
2018-09-08T03:31:53.347Z,22.17
2018-09-08T03:36:56.796Z,23.10
2018-09-08T03:42:00.184Z,24.17
2018-09-08T03:47:03.606Z,22.00
2018-09-08T03:52:07.036Z,26.10
2018-09-08T03:57:10.427Z,23.63
2018-09-08T04:02:13.807Z,22.30
2018-09-08T04:07:18.750Z,21.60
2018-09-08T04:12:23.801Z,21.47
2018-09-08T04:17:29.617Z,20.23
2018-09-08T04:22:35.982Z,23.07
2018-09-08T04:27:40.961Z,23.73
2018-09-08T04:32:45.979Z,21.10
2018-09-08T04:37:50.872Z,17.53
2018-09-08T04:42:55.889Z,24.50
2018-09-08T04:48:00.788Z,24.03
2018-09-08T04:53:05.892Z,25.17
2018-09-08T04:58:10.865Z,20.73
2018-09-08T05:03:15.887Z,23.00
2018-09-08T05:08:21.001Z,25.63
2018-09-08T05:13:26.247Z,27.27
2018-09-08T05:18:31.244Z,22.97
2018-09-08T05:23:36.159Z,25.13
2018-09-08T05:28:41.263Z,24.23
2018-09-08T05:33:46.122Z,23.83
2018-09-08T05:38:50.949Z,26.07
2018-09-08T05:43:56.344Z,23.40
2018-09-08T05:49:01.482Z,23.70
2018-09-08T05:54:06.511Z,26.10
2018-09-08T05:59:11.354Z,36.83
2018-09-08T06:04:16.624Z,21.27
2018-09-08T06:09:21.714Z,24.23
2018-09-08T06:14:26.649Z,28.83
2018-09-08T06:19:31.493Z,22.27
2018-09-08T06:24:36.605Z,23.17
2018-09-08T06:29:41.627Z,30.67
2018-09-08T06:34:47.226Z,18.97
2018-09-08T06:39:52.643Z,21.03
2018-09-08T06:44:57.633Z,23.70
2018-09-08T06:50:02.633Z,18.70
2018-09-08T06:55:07.553Z,20.73
2018-09-08T07:00:12.505Z,27.03
2018-09-08T07:05:17.408Z,22.77
2018-09-08T07:10:22.336Z,22.23
2018-09-08T07:15:27.386Z,18.23
2018-09-08T07:20:32.405Z,22.80
2018-09-08T07:25:37.289Z,21.30
2018-09-08T07:30:42.128Z,27.00
2018-09-08T07:35:47.132Z,15.70
2018-09-08T07:40:52.292Z,14.10
2018-09-08T07:45:57.206Z,16.27
2018-09-08T07:51:02.219Z,17.47
2018-09-08T07:56:07.484Z,17.43
2018-09-08T08:01:12.621Z,16.03
2018-09-08T08:06:17.472Z,15.50
2018-09-08T08:11:22.388Z,10.73
2018-09-08T08:16:27.362Z,18.30
2018-09-08T08:21:32.324Z,13.33
2018-09-08T08:26:37.819Z,10.93
2018-09-08T08:31:42.738Z,18.67
2018-09-08T08:36:47.998Z,10.13
2018-09-08T08:41:52.910Z,14.60
2018-09-08T08:46:57.941Z,15.10
2018-09-08T08:52:13.628Z,22.93
2018-09-08T08:57:18.508Z,14.93
2018-09-08T09:02:23.800Z,11.03
2018-09-08T09:07:28.767Z,9.10
2018-09-08T09:12:34.282Z,12.00
2018-09-08T09:17:39.541Z,12.87
2018-09-08T09:22:55.539Z,12.87
2018-09-08T09:28:00.444Z,12.93
2018-09-08T09:33:05.384Z,11.27
2018-09-08T09:38:10.325Z,12.00
2018-09-08T09:43:15.185Z,10.80
2018-09-08T09:48:20.112Z,11.23
2018-09-08T09:53:25.122Z,10.00
2018-09-08T09:58:30.149Z,13.93
2018-09-08T10:03:35.445Z,11.23
2018-09-08T10:08:40.285Z,12.17
2018-09-08T10:13:45.308Z,10.27
2018-09-08T10:18:50.824Z,11.40
2018-09-08T10:24:05.153Z,11.93
2018-09-08T10:29:01.145Z,9.53
2018-09-08T10:34:06.098Z,9.87
2018-09-08T10:39:11.415Z,9.80
2018-09-08T10:44:16.515Z,10.47
2018-09-08T10:49:21.472Z,9.20
2018-09-08T10:54:26.467Z,8.40
2018-09-08T10:59:31.477Z,7.73
2018-09-08T11:04:36.421Z,11.50
2018-09-08T11:09:41.343Z,12.37
2018-09-08T11:14:46.842Z,11.13
2018-09-08T11:19:51.706Z,11.37
2018-09-08T11:24:56.636Z,8.60
2018-09-08T11:30:01.590Z,12.58
2018-09-08T11:35:06.613Z,8.35
2018-09-08T11:40:11.460Z,8.78
2018-09-08T11:45:17.773Z,11.33
2018-09-08T11:50:22.645Z,12.43
2018-09-08T11:55:28.197Z,8.05
2018-09-08T12:00:33.138Z,8.18
2018-09-08T12:05:38.119Z,9.68
2018-09-08T12:10:43.148Z,9.15
2018-09-08T12:15:48.025Z,9.40
2018-09-08T12:20:52.980Z,10.55
2018-09-08T12:25:57.867Z,6.55
2018-09-08T12:31:02.952Z,7.78
2018-09-08T12:36:07.874Z,8.08
2018-09-08T12:41:13.048Z,8.73
2018-09-08T12:46:17.965Z,11.70
2018-09-08T12:51:22.936Z,13.72
2018-09-08T12:56:28.267Z,8.88
2018-09-08T13:01:33.336Z,11.57
2018-09-08T13:06:38.188Z,10.30
2018-09-08T13:11:43.108Z,10.28
2018-09-08T13:16:48.094Z,7.45
2018-09-08T13:21:53.059Z,5.92
2018-09-08T13:26:57.970Z,7.15
2018-09-08T13:32:02.976Z,9.00
2018-09-08T13:37:07.848Z,10.48
2018-09-08T13:42:12.860Z,6.22
2018-09-08T13:47:17.866Z,7.95
2018-09-08T13:52:22.779Z,8.45
2018-09-08T13:57:27.725Z,9.05
2018-09-08T14:02:33.529Z,9.70
2018-09-08T14:07:42.471Z,7.23
2018-09-08T14:12:47.539Z,6.93
